Time,TemperatureF,DewpointF,PressureIn,WindDirection,WindDirectionDegrees,WindSpeedMPH,WindSpeedGustMPH,Humidity,HourlyPrecipIn,Conditions,Clouds,dailyrainin,SoftwareType,DateUTC
2014-01-07 00:22:00,-13.0,-15.0,30.18,SSE,157,3.0,13.0,90,0.00,,,0.00,,2014-01-07 05:22:00,
2014-01-07 00:53:00,-17.0,-19.0,30.18,SW,215,7.0,13.0,90,0.00,,,0.00,,2014-01-07 05:53:00,
2014-01-07 01:22:00,-17.0,-19.0,30.18,WSW,250,4.0,11.0,90,0.00,,,0.00,,2014-01-07 06:22:00,
2014-01-07 01:52:00,-17.0,-19.0,30.18,SSW,206,5.0,14.0,90,0.00,,,0.00,,2014-01-07 06:52:00,
2014-01-07 02:22:00,-17.0,-19.0,30.19,SW,225,5.0,12.0,90,0.00,,,0.00,,2014-01-07 07:22:00,
2014-01-07 02:52:00,-16.0,-18.0,30.20,SSW,202,4.0,13.0,91,0.00,,,0.00,,2014-01-07 07:52:00,
2014-01-07 03:22:00,-16.0,-18.0,30.22,SW,220,5.0,14.0,91,0.00,,,0.00,,2014-01-07 08:22:00,
2014-01-07 03:52:00,-16.0,-18.0,30.22,SW,226,0.0,14.0,91,0.00,,,0.00,,2014-01-07 08:52:00,
2014-01-07 04:22:00,-16.0,-18.0,30.21,WSW,243,3.0,12.0,91,0.00,,,0.00,,2014-01-07 09:22:00,
2014-01-07 04:53:00,-16.0,-18.0,30.21,SSW,210,7.0,13.0,90,0.00,,,0.00,,2014-01-07 09:53:00,
2014-01-07 05:23:00,-14.0,-16.0,30.21,South,185,3.0,12.0,91,0.00,,,0.00,,2014-01-07 10:23:00,
2014-01-07 05:52:00,-14.0,-16.0,30.22,SSW,208,7.0,13.0,90,0.00,,,0.00,,2014-01-07 10:52:00,
2014-01-07 06:22:00,-13.0,-15.0,30.23,WSW,240,3.0,15.0,91,0.00,,,0.00,,2014-01-07 11:22:00,
2014-01-07 06:53:00,-13.0,-15.0,30.24,SSE,168,2.0,12.0,91,0.00,,,0.00,,2014-01-07 11:53:00,
2014-01-07 07:22:00,-13.0,-15.0,30.25,West,265,4.0,14.0,91,0.00,,,0.00,,2014-01-07 12:22:00,
2014-01-07 07:52:00,-14.0,-16.0,30.26,SSW,202,0.0,15.0,92,0.00,,,0.00,,2014-01-07 12:52:00,
2014-01-07 08:22:00,-12.0,-14.0,30.27,South,187,0.0,10.0,92,0.00,,,0.00,,2014-01-07 13:22:00,
2014-01-07 08:52:00,-12.0,-14.0,30.28,SSW,192,0.0,13.0,92,0.00,,,0.00,,2014-01-07 13:52:00,
2014-01-07 09:22:00,-12.0,-14.0,30.29,SW,219,0.0,14.0,91,0.00,,,0.00,,2014-01-07 14:22:00,
2014-01-07 09:52:00,-12.0,-14.0,30.30,SW,226,5.0,14.0,91,0.00,,,0.00,,2014-01-07 14:52:00,
2014-01-07 10:22:00,-10.0,-12.0,30.30,SW,223,8.0,14.0,89,0.00,,,0.00,,2014-01-07 15:22:00,
2014-01-07 10:53:00,-9.0,-12.0,30.31,SSW,213,3.0,15.0,86,0.00,,,0.00,,2014-01-07 15:53:00,
2014-01-07 11:23:00,-5.0,-9.0,30.32,SSW,194,6.0,14.0,84,0.00,,,0.00,,2014-01-07 16:23:00,
2014-01-07 11:52:00,-4.0,-8.0,30.32,SW,233,12.0,14.0,82,0.00,,,0.00,,2014-01-07 16:52:00,
2014-01-07 12:23:00,-3.0,-8.0,30.32,SW,223,9.0,14.0,80,0.00,,,0.00,,2014-01-07 17:23:00,
2014-01-07 12:52:00,-3.0,-8.0,30.31,SSW,206,6.0,15.0,80,0.00,,,0.00,,2014-01-07 17:52:00,
2014-01-07 13:22:00,-2.0,-7.0,30.30,SSW,202,9.0,15.0,80,0.00,,,0.00,,2014-01-07 18:22:00,
2014-01-07 13:52:00,-2.0,-7.0,30.30,SSE,156,6.0,15.0,79,0.00,,,0.00,,2014-01-07 18:52:00,
2014-01-07 14:22:00,-1.0,-6.0,30.30,SSW,210,3.0,14.0,80,0.00,,,0.00,,2014-01-07 19:22:00,
2014-01-07 14:52:00,0.0,-5.0,30.30,South,174,4.0,15.0,80,0.00,,,0.00,,2014-01-07 19:52:00,
2014-01-07 15:22:00,0.0,-5.0,30.31,SSW,202,0.0,13.0,79,0.00,,,0.00,,2014-01-07 20:22:00,
2014-01-07 15:52:00,0.0,-5.0,30.31,South,175,4.0,15.0,77,0.00,,,0.00,,2014-01-07 20:52:00,
2014-01-07 16:22:00,0.0,-5.0,30.32,SSW,192,4.0,12.0,78,0.00,,,0.00,,2014-01-07 21:22:00,
2014-01-07 16:53:00,0.0,-4.0,30.32,South,187,0.0,16.0,81,0.00,,,0.00,,2014-01-07 21:53:00,
2014-01-07 17:23:00,0.0,-4.0,30.32,SSW,206,5.0,12.0,82,0.00,,,0.00,,2014-01-07 22:23:00,
2014-01-07 17:52:00,0.0,-4.0,30.32,SW,219,5.0,15.0,83,0.00,,,0.00,,2014-01-07 22:52:00,
2014-01-07 18:22:00,0.0,-4.0,30.33,SW,223,0.0,12.0,83,0.00,,,0.00,,2014-01-07 23:22:00,
2014-01-07 18:52:00,0.0,-4.0,30.33,South,189,0.0,12.0,84,0.00,,,0.00,,2014-01-07 23:52:00,
2014-01-07 19:22:00,0.0,-3.0,30.35,SW,217,0.0,0.0,85,0.00,,,0.00,,2014-01-08 00:22:00,
2014-01-07 19:52:00,0.0,-3.0,30.35,SW,229,0.0,10.0,86,0.00,,,0.00,,2014-01-08 00:52:00,
2014-01-07 20:22:00,0.0,-3.0,30.36,SW,230,0.0,4.0,86,0.00,,,0.00,,2014-01-08 01:22:00,
2014-01-07 20:52:00,0.0,-3.0,30.37,South,191,0.0,0.0,87,0.00,,,0.00,,2014-01-08 01:52:00,
2014-01-07 21:22:00,0.0,-3.0,30.38,South,178,0.0,0.0,88,0.00,,,0.00,,2014-01-08 02:22:00,
2014-01-07 21:52:00,0.0,-3.0,30.39,SSW,194,0.0,0.0,88,0.00,,,0.00,,2014-01-08 02:52:00,
2014-01-07 22:22:00,0.0,-2.0,30.40,SSW,194,0.0,0.0,89,0.00,,,0.00,,2014-01-08 03:22:00,
2014-01-07 22:54:00,0.0,-2.0,30.40,SSW,198,0.0,0.0,90,0.00,,,0.00,,2014-01-08 03:54:00,
2014-01-07 23:23:00,0.0,-2.0,30.40,SSW,202,0.0,0.0,91,0.00,,,0.00,,2014-01-08 04:23:00,
2014-01-07 23:53:00,0.0,-2.0,30.40,SSW,192,0.0,0.0,91,0.00,,,0.00,,2014-01-08 04:53:00,